Time;durP1;ratioP1;P1;durP2;ratioP2;P2;SDS_P1;SDS_P2;PMS_P1;PMS_P2;Temp;Humidity;BMP_temperature;BMP_pressure;BME280_temperature;BME280_humidity;BME280_pressure;Samples;Min_cycle;Max_cycle;Signal;HPM_P1;HPM_P2
2022/07/15 00:02:10;;;;;;;3.60;3.13;;;23.30;54.50;;;;;;5016665;28;20193;-83
2022/07/15 00:04:36;;;;;;;3.20;2.90;;;23.10;55.10;;;;;;5009131;28;20322;-83
2022/07/15 00:07:03;;;;;;;3.60;3.27;;;23.00;55.40;;;;;;5013681;28;20541;-83
2022/07/15 00:12:12;;;;;;;3.70;3.40;;;22.90;55.10;;;;;;5016888;28;21072;-83
2022/07/15 00:14:39;;;;;;;3.83;3.43;;;22.80;54.80;;;;;;5032730;28;20525;-83
2022/07/15 00:17:06;;;;;;;6.20;3.50;;;22.90;55.60;;;;;;5015543;28;20219;-83
2022/07/15 00:19:33;;;;;;;4.27;3.00;;;22.40;55.70;;;;;;5016017;28;20433;-82
2022/07/15 00:21:58;;;;;;;3.60;3.30;;;22.80;56.60;;;;;;5014686;28;20492;-83
2022/07/15 00:24:24;;;;;;;4.13;3.60;;;22.10;56.30;;;;;;5013174;28;20434;-82
2022/07/15 00:26:49;;;;;;;3.60;3.30;;;22.40;58.00;;;;;;5010844;28;20226;-83
2022/07/15 00:29:15;;;;;;;2.90;2.70;;;21.90;57.70;;;;;;5018027;28;20182;-82
2022/07/15 00:31:40;;;;;;;3.83;3.53;;;22.20;59.00;;;;;;5032010;28;20189;-83
2022/07/15 00:34:06;;;;;;;4.07;3.50;;;21.90;59.60;;;;;;5015331;28;20183;-82
2022/07/15 00:36:31;;;;;;;5.00;3.87;;;21.70;60.00;;;;;;5013205;28;20198;-82
2022/07/15 00:38:57;;;;;;;4.60;3.70;;;21.10;60.80;;;;;;5011267;28;20717;-82
2022/07/15 00:41:23;;;;;;;5.53;3.53;;;21.10;62.00;;;;;;5008965;28;20179;-82
2022/07/15 00:43:49;;;;;;;3.23;2.93;;;20.80;62.20;;;;;;5006326;28;20182;-82
2022/07/15 00:46:19;;;;;;;4.22;3.70;;;20.60;62.80;;;;;;5018592;28;20535;-82
2022/07/15 00:48:45;;;;;;;3.40;3.10;;;20.80;64.00;;;;;;5011766;28;20211;-82
2022/07/15 00:51:10;;;;;;;3.72;3.42;;;20.80;64.50;;;;;;5023399;28;20194;-82
2022/07/15 00:53:38;;;;;;;3.57;3.30;;;20.30;64.30;;;;;;5013273;28;20187;-81
2022/07/15 00:56:06;;;;;;;4.00;3.65;;;20.40;65.20;;;;;;5014178;28;20252;-82
2022/07/15 00:58:35;;;;;;;4.03;3.63;;;20.20;65.20;;;;;;5013261;28;20254;-82
2022/07/15 01:01:01;;;;;;;3.70;3.40;;;20.10;65.80;;;;;;5011894;28;20178;-82
2022/07/15 01:03:30;;;;;;;3.60;3.30;;;20.00;66.50;;;;;;5014576;28;20190;-82
2022/07/15 01:05:57;;;;;;;3.65;3.30;;;19.90;67.80;;;;;;5012069;28;20555;-82
2022/07/15 01:08:22;;;;;;;3.78;3.47;;;19.90;66.80;;;;;;5010927;28;20186;-81
2022/07/15 01:10:49;;;;;;;3.87;3.47;;;20.30;67.30;;;;;;5012777;28;20191;-82
2022/07/15 01:13:15;;;;;;;3.38;3.05;;;19.80;67.30;;;;;;5013107;28;20183;-83
2022/07/15 01:15:41;;;;;;;3.38;3.08;;;20.20;68.50;;;;;;5018613;28;20206;-82
2022/07/15 01:18:06;;;;;;;3.90;3.47;;;20.20;67.90;;;;;;5010218;28;20206;-82
2022/07/15 01:20:32;;;;;;;3.33;3.00;;;20.10;68.90;;;;;;5016094;28;20189;-82
2022/07/15 01:22:59;;;;;;;5.03;2.97;;;20.20;68.40;;;;;;5014362;28;20181;-81
2022/07/15 01:25:25;;;;;;;7.00;3.20;;;19.90;67.80;;;;;;5021438;28;20174;-82
2022/07/15 01:27:50;;;;;;;6.55;4.10;;;19.80;69.20;;;;;;5013632;28;20261;-81
2022/07/15 01:30:16;;;;;;;3.87;3.47;;;19.70;69.20;;;;;;5003972;28;20190;-82
2022/07/15 01:32:42;;;;;;;5.27;4.63;;;20.00;69.20;;;;;;5014087;28;20210;-82
2022/07/15 01:35:08;;;;;;;4.13;3.70;;;20.00;69.70;;;;;;5017709;28;20194;-82
2022/07/15 01:37:33;;;;;;;5.25;3.60;;;19.50;69.30;;;;;;5016187;28;20202;-82
2022/07/15 01:39:59;;;;;;;3.93;3.53;;;19.70;69.40;;;;;;5017813;28;20609;-82
2022/07/15 01:42:25;;;;;;;4.10;3.27;;;19.70;69.20;;;;;;5018881;28;20206;-82
2022/07/15 01:44:50;;;;;;;4.20;2.87;;;20.30;70.00;;;;;;5014522;28;20675;-82
2022/07/15 01:47:16;;;;;;;3.97;3.00;;;19.60;68.40;;;;;;5018448;28;20221;-82
2022/07/15 01:49:42;;;;;;;4.23;3.10;;;20.00;69.40;;;;;;5006760;28;20187;-81
2022/07/15 01:52:09;;;;;;;3.58;3.28;;;20.10;69.00;;;;;;5021138;28;20178;-81
2022/07/15 01:54:35;;;;;;;3.40;3.10;;;19.60;68.60;;;;;;5014553;28;20182;-81
2022/07/15 01:57:01;;;;;;;3.85;2.85;;;19.90;68.10;;;;;;5013266;28;20242;-82
2022/07/15 01:59:27;;;;;;;3.20;3.00;;;20.00;68.50;;;;;;5018412;28;20206;-82
2022/07/15 02:01:54;;;;;;;3.70;3.30;;;20.00;68.00;;;;;;5014787;28;21052;-82
2022/07/15 02:04:21;;;;;;;6.20;3.72;;;20.00;70.10;;;;;;5016651;28;20274;-82
2022/07/15 02:06:47;;;;;;;3.70;3.28;;;20.00;69.40;;;;;;5029342;28;20287;-83
2022/07/15 02:09:12;;;;;;;4.03;3.30;;;19.80;69.60;;;;;;5019840;28;20689;-82
2022/07/15 02:11:38;;;;;;;6.43;3.40;;;19.70;70.50;;;;;;5014916;28;20827;-82
2022/07/15 02:14:04;;;;;;;4.37;3.10;;;19.60;71.30;;;;;;5015953;28;20548;-81
2022/07/15 02:16:30;;;;;;;4.23;3.40;;;19.00;71.50;;;;;;5019263;28;20580;-82
2022/07/15 02:18:57;;;;;;;5.18;4.10;;;19.20;72.60;;;;;;5007806;28;20314;-82
2022/07/15 02:21:22;;;;;;;3.50;3.20;;;18.60;73.00;;;;;;5015585;28;20214;-83
2022/07/15 02:23:48;;;;;;;4.07;3.30;;;18.70;74.10;;;;;;5014516;28;20850;-83
2022/07/15 02:26:14;;;;;;;3.67;3.37;;;18.60;76.30;;;;;;5018442;28;20654;-83
2022/07/15 02:28:39;;;;;;;3.30;3.00;;;18.60;78.50;;;;;;5013088;28;20194;-82
2022/07/15 02:31:05;;;;;;;3.80;3.43;;;18.40;78.10;;;;;;5026208;28;20464;-83
2022/07/15 02:33:31;;;;;;;3.03;2.73;;;18.30;78.10;;;;;;5018619;28;20186;-82
2022/07/15 02:35:57;;;;;;;3.75;3.33;;;18.20;78.40;;;;;;5011394;28;20190;-82
2022/07/15 02:38:22;;;;;;;4.17;3.37;;;17.90;78.40;;;;;;5011273;28;20194;-83
2022/07/15 02:40:48;;;;;;;3.73;3.43;;;18.30;78.80;;;;;;5018525;28;20186;-82
2022/07/15 02:43:14;;;;;;;3.70;3.40;;;18.20;79.60;;;;;;5011935;28;20183;-82
2022/07/15 02:45:40;;;;;;;3.03;2.73;;;18.30;79.20;;;;;;5016305;28;20201;-82
2022/07/15 02:48:06;;;;;;;5.00;3.33;;;18.10;79.20;;;;;;5018818;28;20689;-82
2022/07/15 02:50:32;;;;;;;3.22;2.92;;;18.30;79.80;;;;;;5010381;28;20537;-83
2022/07/15 02:52:58;;;;;;;3.33;3.00;;;18.20;80.10;;;;;;5013042;28;20313;-82
2022/07/15 02:55:23;;;;;;;4.20;3.10;;;18.10;80.50;;;;;;5012846;28;20191;-83
2022/07/15 02:57:49;;;;;;;5.17;3.40;;;18.00;80.80;;;;;;5007817;28;20253;-82
2022/07/15 03:00:19;;;;;;;3.73;3.13;;;18.00;81.40;;;;;;5012258;28;20441;-82
2022/07/15 03:02:46;;;;;;;4.75;3.30;;;17.90;81.50;;;;;;5012739;28;20179;-82
2022/07/15 03:05:12;;;;;;;4.63;3.10;;;18.00;82.20;;;;;;5014668;28;20218;-83
2022/07/15 03:07:38;;;;;;;4.10;3.70;;;17.70;82.60;;;;;;5012258;28;20286;-82
2022/07/15 03:10:05;;;;;;;3.57;3.27;;;17.80;83.10;;;;;;5013026;28;20659;-82
2022/07/15 03:12:31;;;;;;;4.80;3.63;;;17.40;83.40;;;;;;5005144;28;20676;-83
2022/07/15 03:14:57;;;;;;;4.60;3.17;;;17.40;84.50;;;;;;5012073;28;20270;-82
2022/07/15 03:17:23;;;;;;;3.47;3.10;;;17.20;84.60;;;;;;5012201;28;20610;-83
2022/07/15 03:19:48;;;;;;;6.80;3.40;;;17.60;85.60;;;;;;5015915;28;20439;-83
2022/07/15 03:22:14;;;;;;;3.60;3.30;;;17.50;85.90;;;;;;5014919;28;20432;-83
2022/07/15 03:24:40;;;;;;;3.67;3.30;;;19.30;88.60;;;;;;5013888;28;20179;-82
2022/07/15 03:27:05;;;;;;;3.03;2.80;;;17.60;88.50;;;;;;5013393;28;20210;-83
2022/07/15 03:29:31;;;;;;;4.00;3.70;;;17.50;88.50;;;;;;5011578;28;20562;-83
2022/07/15 03:31:57;;;;;;;5.97;4.00;;;17.30;88.00;;;;;;5013060;28;20178;-82
2022/07/15 03:34:25;;;;;;;4.23;3.30;;;17.40;88.20;;;;;;5017565;28;20191;-83
2022/07/15 03:36:52;;;;;;;3.53;3.20;;;17.00;87.80;;;;;;5014417;28;20203;-83
2022/07/15 03:39:18;;;;;;;3.28;2.97;;;17.50;89.40;;;;;;5018182;28;20179;-82
2022/07/15 03:41:43;;;;;;;4.70;3.37;;;17.10;89.10;;;;;;5012607;28;20183;-82
2022/07/15 03:44:09;;;;;;;3.83;3.53;;;17.30;89.40;;;;;;5015263;28;20266;-81
2022/07/15 03:46:35;;;;;;;4.40;3.67;;;17.30;89.80;;;;;;5015548;28;20404;-82
2022/07/15 03:49:02;;;;;;;4.18;3.47;;;16.90;89.80;;;;;;5011645;28;20241;-82
2022/07/15 03:51:31;;;;;;;3.55;3.25;;;17.10;90.40;;;;;;5006512;28;20605;-83
2022/07/15 03:54:02;;;;;;;5.55;3.50;;;17.20;90.50;;;;;;5009647;28;20595;-83
2022/07/15 03:56:28;;;;;;;3.75;3.45;;;16.80;90.60;;;;;;5015786;28;20203;-82
2022/07/15 03:58:54;;;;;;;3.30;3.00;;;16.80;90.90;;;;;;5015057;28;20249;-82
2022/07/15 04:01:20;;;;;;;4.77;3.43;;;16.50;91.00;;;;;;5010686;28;20206;-83
2022/07/15 04:03:48;;;;;;;4.35;3.85;;;16.90;91.70;;;;;;5018466;28;20249;-82
2022/07/15 04:06:14;;;;;;;4.72;3.88;;;16.50;91.40;;;;;;5011923;28;20211;-83
2022/07/15 04:08:40;;;;;;;4.30;4.00;;;17.20;92.20;;;;;;5011416;28;20187;-82
2022/07/15 04:11:05;;;;;;;4.27;3.40;;;16.60;91.90;;;;;;5011817;28;20647;-82
2022/07/15 04:13:31;;;;;;;3.83;3.40;;;16.80;92.00;;;;;;5013095;28;20183;-83
2022/07/15 04:15:56;;;;;;;6.40;3.77;;;16.80;92.20;;;;;;5015587;28;20219;-82
2022/07/15 04:18:22;;;;;;;4.50;4.13;;;16.70;92.20;;;;;;5014060;28;20225;-83
2022/07/15 04:20:48;;;;;;;3.70;3.33;;;16.90;92.50;;;;;;5007200;28;20290;-82
2022/07/15 04:23:14;;;;;;;4.10;3.60;;;16.70;92.40;;;;;;5014663;28;20178;-82
2022/07/15 04:25:40;;;;;;;4.10;3.60;;;16.80;92.60;;;;;;5018839;28;20185;-81
2022/07/15 04:28:05;;;;;;;4.90;3.57;;;16.60;93.30;;;;;;5036097;28;20726;-81
2022/07/15 04:30:31;;;;;;;4.07;3.73;;;17.00;93.20;;;;;;5013076;28;20465;-81
2022/07/15 04:32:56;;;;;;;3.90;3.50;;;17.10;92.80;;;;;;5003408;28;20233;-81
2022/07/15 04:35:22;;;;;;;4.47;3.60;;;17.20;92.70;;;;;;5016562;28;20209;-82
2022/07/15 04:37:47;;;;;;;3.97;3.67;;;16.60;92.30;;;;;;5000574;28;20219;-81
2022/07/15 04:40:13;;;;;;;5.00;3.87;;;17.20;92.80;;;;;;5008419;28;20186;-82
2022/07/15 04:42:39;;;;;;;3.60;3.30;;;16.80;92.50;;;;;;5003331;28;20187;-82
2022/07/15 04:45:05;;;;;;;3.60;3.40;;;16.90;92.60;;;;;;5008352;28;20183;-82
2022/07/15 04:47:31;;;;;;;6.78;3.47;;;17.00;92.70;;;;;;5011100;28;20211;-83
2022/07/15 04:52:45;;;;;;;3.80;3.50;;;17.30;92.60;;;;;;5004258;28;20304;-82
2022/07/15 04:55:11;;;;;;;4.05;3.65;;;17.40;92.50;;;;;;5002827;28;20190;-82
2022/07/15 04:57:36;;;;;;;5.40;3.75;;;17.30;92.50;;;;;;5006357;28;20247;-81
2022/07/15 05:00:04;;;;;;;4.10;3.70;;;17.40;92.30;;;;;;5010123;28;20209;-82
2022/07/15 05:02:30;;;;;;;4.25;3.85;;;17.30;91.90;;;;;;5009293;28;20572;-82
2022/07/15 05:04:55;;;;;;;10.47;6.87;;;17.50;92.20;;;;;;5012366;28;20221;-82
2022/07/15 05:07:21;;;;;;;4.53;3.70;;;17.60;92.20;;;;;;5010268;28;20198;-80
2022/07/15 05:09:46;;;;;;;4.47;3.90;;;17.90;91.90;;;;;;5008916;28;20261;-81
2022/07/15 05:12:12;;;;;;;4.43;4.03;;;17.70;91.50;;;;;;5007669;28;20197;-82
2022/07/15 05:14:40;;;;;;;4.57;4.17;;;18.30;91.30;;;;;;5006931;28;20209;-82
2022/07/15 05:17:07;;;;;;;6.68;4.05;;;18.30;90.60;;;;;;5000934;28;20474;-80
2022/07/15 05:19:32;;;;;;;4.30;4.00;;;18.50;90.30;;;;;;5011283;28;20215;-81
2022/07/15 05:21:58;;;;;;;4.73;3.63;;;17.90;90.00;;;;;;5011544;28;20221;-80
2022/07/15 05:24:23;;;;;;;3.83;3.53;;;18.70;90.40;;;;;;5011258;28;20643;-81
2022/07/15 05:26:49;;;;;;;4.20;3.20;;;18.60;90.50;;;;;;5003876;28;20341;-84
2022/07/15 05:29:15;;;;;;;5.07;3.87;;;18.40;90.50;;;;;;5006321;28;20218;-85
2022/07/15 05:31:44;;;;;;;5.23;3.80;;;18.50;90.10;;;;;;5010845;28;20186;-84
2022/07/15 05:34:09;;;;;;;6.53;4.10;;;18.60;89.50;;;;;;5025286;28;20434;-84
2022/07/15 05:36:35;;;;;;;3.87;3.53;;;18.80;88.90;;;;;;5004524;28;20772;-84
2022/07/15 05:39:01;;;;;;;4.73;3.67;;;19.00;88.60;;;;;;4998552;28;20619;-83
2022/07/15 05:41:26;;;;;;;4.07;3.67;;;18.80;88.00;;;;;;5004014;28;20695;-85
2022/07/15 05:43:52;;;;;;;5.50;4.70;;;19.40;89.00;;;;;;5003114;28;20187;-83
2022/07/15 05:46:17;;;;;;;5.50;3.83;;;18.70;87.20;;;;;;5002605;28;20286;-83
2022/07/15 05:48:43;;;;;;;5.37;4.30;;;19.30;87.10;;;;;;5004783;28;20182;-85
2022/07/15 05:51:08;;;;;;;4.73;4.00;;;19.90;85.40;;;;;;5001979;28;20218;-85
2022/07/15 05:53:34;;;;;;;7.53;4.47;;;20.10;84.40;;;;;;5002557;28;20183;-85
2022/07/15 05:56:00;;;;;;;5.83;4.07;;;20.10;84.30;;;;;;5006260;28;20274;-84
2022/07/15 05:58:25;;;;;;;6.00;3.93;;;19.90;83.60;;;;;;5010314;28;20209;-84
2022/07/15 06:00:52;;;;;;;3.83;3.30;;;20.60;82.70;;;;;;5000534;28;20194;-82
2022/07/15 06:03:18;;;;;;;5.75;3.47;;;20.30;80.10;;;;;;5003888;28;20225;-83
2022/07/15 06:05:44;;;;;;;4.60;3.27;;;20.30;79.80;;;;;;4993612;28;20179;-84
2022/07/15 06:08:10;;;;;;;4.25;3.80;;;20.40;78.20;;;;;;5006649;28;20714;-83
2022/07/15 06:10:36;;;;;;;5.10;4.60;;;20.50;79.00;;;;;;5009205;28;20196;-83
2022/07/15 06:13:02;;;;;;;4.10;3.67;;;20.80;77.90;;;;;;5018528;28;20190;-83
2022/07/15 06:15:28;;;;;;;4.77;4.00;;;21.00;78.20;;;;;;5031526;28;20201;-83
2022/07/15 06:17:53;;;;;;;5.17;3.43;;;22.10;77.10;;;;;;5008731;28;20472;-86
2022/07/15 06:20:19;;;;;;;3.37;3.10;;;21.10;75.90;;;;;;5006547;28;20179;-91
2022/07/15 06:22:45;;;;;;;4.00;3.70;;;21.20;75.60;;;;;;5002740;28;20191;-86
2022/07/15 06:25:11;;;;;;;5.60;3.33;;;20.90;76.80;;;;;;5009643;28;20640;-86
2022/07/15 06:27:37;;;;;;;4.13;3.73;;;21.30;75.40;;;;;;5013412;28;20508;-86
2022/07/15 06:30:04;;;;;;;5.60;3.30;;;21.20;72.90;;;;;;5012592;28;20442;-83
2022/07/15 06:32:29;;;;;;;5.80;5.30;;;21.20;71.30;;;;;;5019355;28;20191;-86
2022/07/15 06:34:55;;;;;;;3.80;3.50;;;21.60;72.60;;;;;;5014647;28;20242;-84
2022/07/15 06:37:21;;;;;;;3.60;3.13;;;21.30;71.10;;;;;;5010938;28;20246;-85
2022/07/15 06:39:48;;;;;;;4.65;4.18;;;21.30;68.60;;;;;;5007697;28;20199;-82
2022/07/15 06:42:13;;;;;;;3.93;3.60;;;21.50;68.80;;;;;;5008989;28;20201;-83
2022/07/15 06:44:39;;;;;;;3.80;3.13;;;22.30;69.00;;;;;;5002564;28;20957;-85
2022/07/15 06:47:06;;;;;;;4.37;3.97;;;22.10;67.70;;;;;;5006677;28;20200;-83
2022/07/15 06:49:35;;;;;;;4.63;2.93;;;21.80;66.20;;;;;;5006044;28;20453;-83
2022/07/15 06:52:01;;;;;;;3.38;3.05;;;21.90;65.50;;;;;;5008198;28;20442;-82
2022/07/15 06:54:27;;;;;;;3.40;2.87;;;22.10;64.90;;;;;;5005758;28;20187;-84
2022/07/15 06:56:53;;;;;;;5.60;3.43;;;22.30;63.70;;;;;;5000805;28;20465;-84
2022/07/15 06:59:18;;;;;;;5.30;3.00;;;22.20;63.90;;;;;;5008465;28;20180;-84
2022/07/15 07:01:44;;;;;;;6.00;3.10;;;22.10;62.90;;;;;;5009504;28;20643;-84
2022/07/15 07:04:09;;;;;;;3.07;2.73;;;22.50;64.50;;;;;;5004689;28;20179;-86
2022/07/15 07:06:35;;;;;;;7.43;3.70;;;22.40;61.80;;;;;;5007846;28;20202;-84
2022/07/15 07:09:01;;;;;;;3.63;3.00;;;23.30;63.30;;;;;;5001134;28;20605;-82
2022/07/15 07:11:26;;;;;;;3.10;2.73;;;23.70;59.20;;;;;;5008155;28;20185;-84
2022/07/15 07:13:52;;;;;;;3.23;2.33;;;26.60;55.10;;;;;;5004247;28;20955;-84
2022/07/15 07:16:18;;;;;;;6.73;3.00;;;28.80;49.90;;;;;;5015220;28;20300;-84
2022/07/15 07:18:47;;;;;;;5.87;2.40;;;29.80;46.00;;;;;;5013456;28;20222;-82
2022/07/15 07:21:13;;;;;;;3.50;3.00;;;32.40;42.80;;;;;;5004869;28;20473;-84
2022/07/15 07:23:39;;;;;;;2.90;2.70;;;33.70;39.40;;;;;;5009312;28;20508;-83
2022/07/15 07:26:07;;;;;;;2.60;2.40;;;34.80;37.20;;;;;;5008459;28;20507;-84
2022/07/15 07:28:33;;;;;;;4.53;2.80;;;37.30;33.40;;;;;;5001892;28;20443;-83
2022/07/15 07:30:59;;;;;;;3.20;2.60;;;37.60;30.30;;;;;;5007586;28;20568;-84
2022/07/15 07:33:25;;;;;;;2.60;2.40;;;37.90;29.10;;;;;;5008976;28;20233;-84
2022/07/15 07:35:52;;;;;;;4.57;2.70;;;36.60;29.50;;;;;;5005859;28;20806;-84
2022/07/15 07:38:19;;;;;;;2.87;2.57;;;37.00;29.90;;;;;;5003809;28;20199;-83
2022/07/15 07:40:47;;;;;;;4.30;2.40;;;37.00;29.00;;;;;;5003794;28;20442;-84
2022/07/15 07:43:14;;;;;;;5.23;2.77;;;37.60;28.30;;;;;;5002376;28;20442;-83
2022/07/15 07:45:40;;;;;;;2.50;2.20;;;37.90;29.30;;;;;;5005175;28;20434;-83
2022/07/15 07:48:06;;;;;;;2.63;2.43;;;40.20;27.70;;;;;;5004155;28;20453;-83
2022/07/15 07:50:32;;;;;;;4.47;3.20;;;38.70;27.20;;;;;;5006030;28;20205;-83
2022/07/15 07:52:57;;;;;;;2.80;2.40;;;37.20;28.20;;;;;;5005191;28;20438;-85
2022/07/15 07:55:23;;;;;;;2.60;2.40;;;37.90;28.30;;;;;;5010489;28;20278;-84
2022/07/15 07:57:54;;;;;;;3.77;2.57;;;38.50;27.20;;;;;;5005335;28;20249;-84
2022/07/15 08:00:22;;;;;;;2.70;2.50;;;39.50;26.60;;;;;;5014043;28;20214;-84
2022/07/15 08:02:48;;;;;;;3.40;2.67;;;39.10;25.90;;;;;;5010161;28;20445;-84
2022/07/15 08:05:15;;;;;;;3.30;2.20;;;40.00;26.70;;;;;;5002815;28;20447;-86
2022/07/15 08:07:41;;;;;;;3.57;2.30;;;39.20;25.30;;;;;;5000960;28;20693;-86
2022/07/15 08:10:09;;;;;;;2.27;2.03;;;38.00;26.90;;;;;;5004280;28;20431;-84
2022/07/15 08:12:37;;;;;;;3.07;2.20;;;38.90;26.20;;;;;;5011091;28;20503;-83
2022/07/15 08:15:04;;;;;;;2.23;2.03;;;40.50;25.60;;;;;;5006114;28;20910;-84
2022/07/15 08:17:29;;;;;;;2.80;2.53;;;40.00;24.50;;;;;;5009283;28;20556;-83
2022/07/15 08:19:55;;;;;;;2.87;2.50;;;39.60;25.40;;;;;;5025657;28;20477;-84
2022/07/15 08:22:21;;;;;;;2.30;2.20;;;39.90;24.10;;;;;;5008444;28;20265;-84
2022/07/15 08:24:49;;;;;;;2.33;2.13;;;38.90;25.00;;;;;;5017731;28;20445;-84
2022/07/15 08:27:15;;;;;;;3.23;2.77;;;39.20;25.00;;;;;;5030946;28;20209;-84
2022/07/15 08:29:40;;;;;;;3.53;2.20;;;39.20;26.00;;;;;;5018218;28;20436;-84
2022/07/15 08:32:06;;;;;;;2.57;2.37;;;38.70;25.10;;;;;;5028281;28;21079;-84
2022/07/15 08:34:31;;;;;;;3.80;2.00;;;39.10;25.10;;;;;;5000759;28;20179;-86
2022/07/15 08:36:57;;;;;;;3.10;2.40;;;39.50;24.60;;;;;;5008980;28;20211;-84
2022/07/15 08:39:23;;;;;;;2.70;2.30;;;38.60;24.90;;;;;;5007140;28;20207;-84
2022/07/15 08:41:51;;;;;;;2.27;1.90;;;38.60;25.60;;;;;;5022008;28;20194;-84
2022/07/15 08:44:17;;;;;;;2.63;2.43;;;38.10;25.70;;;;;;5016469;28;20436;-85
2022/07/15 08:46:45;;;;;;;4.43;2.23;;;36.90;25.90;;;;;;5024746;28;20510;-84
2022/07/15 08:49:16;;;;;;;3.10;2.13;;;37.40;26.50;;;;;;5017776;28;20186;-85
2022/07/15 08:51:44;;;;;;;3.40;2.70;;;38.10;25.80;;;;;;5013248;28;20924;-84
2022/07/15 08:54:11;;;;;;;2.30;2.10;;;39.00;26.50;;;;;;5030711;28;20440;-84
2022/07/15 08:56:37;;;;;;;3.93;2.73;;;36.70;26.40;;;;;;5024774;28;20496;-84
2022/07/15 08:59:06;;;;;;;4.00;2.57;;;36.90;25.80;;;;;;5009029;28;21070;-83
2022/07/15 09:01:33;;;;;;;2.77;2.57;;;36.80;26.70;;;;;;5019526;28;20436;-82
2022/07/15 09:03:59;;;;;;;3.27;2.50;;;37.10;26.40;;;;;;5029115;28;20533;-84
2022/07/15 09:06:32;;;;;;;2.50;2.30;;;37.70;26.30;;;;;;5027069;28;20451;-84
2022/07/15 09:08:57;;;;;;;3.33;2.30;;;37.60;26.20;;;;;;5020547;28;20444;-85
2022/07/15 09:11:29;;;;;;;2.93;2.27;;;38.20;26.00;;;;;;5027190;28;20433;-84
2022/07/15 09:14:00;;;;;;;3.97;2.70;;;39.30;25.60;;;;;;5016403;28;20183;-84
2022/07/15 09:16:26;;;;;;;3.20;2.40;;;39.90;24.90;;;;;;5015789;28;20978;-84
2022/07/15 09:18:52;;;;;;;2.93;2.30;;;39.80;24.00;;;;;;5014038;28;20972;-84
2022/07/15 09:21:26;;;;;;;2.70;2.50;;;39.40;25.30;;;;;;5003854;28;20528;-83
2022/07/15 09:23:55;;;;;;;3.50;2.87;;;38.70;25.50;;;;;;5016294;28;20229;-83
2022/07/15 09:26:33;;;;;;;3.20;2.80;;;38.80;25.60;;;;;;5009616;28;20561;-84
2022/07/15 09:28:59;;;;;;;3.70;3.40;;;39.90;25.60;;;;;;5003339;28;20996;-83
2022/07/15 09:34:15;;;;;;;3.43;2.60;;;36.30;26.70;;;;;;5009690;28;20432;-85
2022/07/15 09:36:44;;;;;;;2.87;2.50;;;37.50;26.10;;;;;;5008295;28;20842;-84
2022/07/15 09:39:10;;;;;;;2.90;2.33;;;37.80;26.50;;;;;;5027298;28;20469;-84
2022/07/15 09:41:38;;;;;;;4.33;2.97;;;38.80;26.10;;;;;;4998493;28;20515;-83
2022/07/15 09:44:09;;;;;;;3.00;2.67;;;39.00;24.80;;;;;;5011088;28;20688;-83
2022/07/15 09:46:59;;;;;;;3.77;3.40;;;38.60;24.80;;;;;;5025084;28;20449;-83
2022/07/15 09:49:24;;;;;;;3.30;3.00;;;38.10;25.10;;;;;;5031890;28;20524;-83
2022/07/15 09:51:55;;;;;;;5.43;2.73;;;38.70;25.50;;;;;;5025945;28;20584;-84
2022/07/15 09:54:30;;;;;;;3.50;2.60;;;38.60;25.20;;;;;;5014244;28;20269;-83
2022/07/15 09:56:56;;;;;;;2.83;2.63;;;38.80;25.70;;;;;;5028268;28;20483;-83
2022/07/15 09:59:21;;;;;;;2.60;2.40;;;38.60;24.90;;;;;;5014209;28;20979;-83
2022/07/15 10:01:47;;;;;;;3.30;2.60;;;39.10;25.40;;;;;;5018757;28;20469;-83
2022/07/15 10:04:15;;;;;;;2.90;2.60;;;39.70;24.70;;;;;;5012515;28;20240;-83
2022/07/15 10:06:42;;;;;;;3.20;2.50;;;40.10;24.80;;;;;;5031740;28;20268;-83
2022/07/15 10:09:09;;;;;;;3.23;2.50;;;39.80;24.60;;;;;;5011473;28;20454;-83
2022/07/15 10:11:42;;;;;;;2.80;2.53;;;39.90;24.30;;;;;;5024993;28;21008;-84
2022/07/15 10:14:37;;;;;;;3.83;2.57;;;39.40;24.50;;;;;;5018662;28;20444;-84
2022/07/15 10:17:29;;;;;;;2.77;2.57;;;38.40;25.20;;;;;;5019081;28;20500;-83
2022/07/15 10:20:13;;;;;;;6.10;5.60;;;38.80;25.70;;;;;;5016455;28;20473;-83
2022/07/15 10:22:53;;;;;;;2.97;2.77;;;38.20;26.00;;;;;;5007228;28;20421;-84
2022/07/15 10:25:46;;;;;;;2.80;2.60;;;35.60;26.70;;;;;;5046275;28;20432;-84
2022/07/15 10:28:35;;;;;;;4.53;4.13;;;35.40;27.90;;;;;;4999567;28;20948;-83
2022/07/15 10:31:20;;;;;;;5.13;3.23;;;35.10;28.00;;;;;;5032480;28;20588;-83
2022/07/15 10:34:04;;;;;;;17.13;4.40;;;34.00;28.60;;;;;;5032868;28;20443;-84
2022/07/15 10:36:39;;;;;;;4.27;3.87;;;34.00;29.50;;;;;;5038792;28;20831;-83
2022/07/15 10:39:05;;;;;;;4.57;3.60;;;33.80;30.00;;;;;;5031943;28;20474;-84
2022/07/15 10:41:54;;;;;;;3.43;2.77;;;32.30;30.30;;;;;;5027578;28;20431;-83
2022/07/15 10:44:20;;;;;;;4.60;3.17;;;31.10;32.00;;;;;;5016231;28;20182;-83
2022/07/15 10:46:47;;;;;;;3.30;3.10;;;31.40;33.10;;;;;;5026727;28;20467;-82
2022/07/15 10:49:15;;;;;;;3.67;2.93;;;32.40;31.90;;;;;;5017592;28;20515;-83
2022/07/15 10:51:41;;;;;;;3.03;2.70;;;33.10;31.50;;;;;;5002760;28;20473;-84
2022/07/15 10:54:17;;;;;;;3.27;3.07;;;33.80;30.40;;;;;;5017851;28;20432;-82
2022/07/15 10:56:45;;;;;;;3.80;3.40;;;33.60;29.90;;;;;;5002997;28;20548;-85
2022/07/15 10:59:20;;;;;;;3.43;2.60;;;33.80;30.50;;;;;;5009621;28;20551;-82
2022/07/15 11:02:07;;;;;;;3.80;2.60;;;33.90;30.00;;;;;;5008636;28;20441;-82
2022/07/15 11:04:34;;;;;;;3.90;2.80;;;34.40;29.50;;;;;;4995601;28;20439;-83
2022/07/15 11:07:09;;;;;;;2.63;2.43;;;34.80;29.50;;;;;;5008741;28;20477;-83
2022/07/15 11:09:51;;;;;;;3.27;2.97;;;35.60;28.60;;;;;;5010650;28;20452;-83
2022/07/15 11:12:30;;;;;;;4.23;2.77;;;35.10;28.70;;;;;;5006625;28;20448;-84
2022/07/15 11:15:11;;;;;;;4.43;2.50;;;36.00;27.90;;;;;;5011962;28;20438;-83
2022/07/15 11:17:36;;;;;;;4.80;2.87;;;35.20;28.50;;;;;;5015746;28;20466;-83
2022/07/15 11:20:14;;;;;;;2.90;2.70;;;34.20;28.40;;;;;;5007479;28;20442;-84
2022/07/15 11:22:42;;;;;;;3.30;3.00;;;34.60;29.30;;;;;;5004319;28;20287;-82
2022/07/15 11:25:22;;;;;;;5.20;3.57;;;35.00;28.80;;;;;;5011734;28;20432;-83
2022/07/15 11:28:00;;;;;;;3.80;2.67;;;34.50;28.80;;;;;;5013204;28;20465;-82
2022/07/15 11:30:53;;;;;;;4.07;3.00;;;35.00;29.20;;;;;;5006580;28;20441;-81
2022/07/15 11:33:21;;;;;;;3.80;3.37;;;35.90;28.10;;;;;;5015172;28;20529;-82
2022/07/15 11:35:53;;;;;;;4.10;2.83;;;35.10;28.60;;;;;;5005161;28;20511;-83
2022/07/15 11:38:23;;;;;;;3.10;2.90;;;34.20;29.20;;;;;;5001334;28;20501;-83
2022/07/15 11:46:19;;;;;;;4.13;3.40;;;31.80;31.80;;;;;;5011503;28;20452;-82
2022/07/15 11:48:45;;;;;;;5.63;4.87;;;30.90;33.00;;;;;;5001104;28;20461;-83
2022/07/15 11:51:12;;;;;;;5.77;3.67;;;31.30;34.50;;;;;;5006224;28;20780;-83
2022/07/15 11:53:43;;;;;;;4.50;3.27;;;30.50;34.30;;;;;;5007171;28;20187;-82
2022/07/15 11:56:11;;;;;;;4.10;3.80;;;29.70;34.90;;;;;;5005667;28;20544;-83
2022/07/15 11:58:42;;;;;;;4.47;3.00;;;30.20;37.30;;;;;;5009779;28;20460;-84
2022/07/15 12:01:12;;;;;;;5.20;3.87;;;29.70;36.40;;;;;;5000920;28;20438;-82
2022/07/15 12:03:41;;;;;;;4.27;3.40;;;30.00;35.90;;;;;;5015891;28;20468;-82
2022/07/15 12:06:10;;;;;;;3.13;2.93;;;30.00;35.60;;;;;;5015710;28;20472;-82
2022/07/15 12:08:41;;;;;;;3.63;3.33;;;29.60;36.10;;;;;;5006369;28;20460;-80
2022/07/15 12:11:28;;;;;;;6.00;3.67;;;29.00;37.20;;;;;;5008962;28;21018;-82
2022/07/15 12:14:02;;;;;;;5.03;3.63;;;28.80;37.20;;;;;;5012737;28;20446;-82
2022/07/15 12:16:30;;;;;;;4.73;3.40;;;29.00;37.60;;;;;;5007791;28;20484;-81
2022/07/15 12:19:03;;;;;;;5.00;3.13;;;29.00;37.60;;;;;;5015870;28;20555;-81
2022/07/15 12:21:30;;;;;;;5.43;3.30;;;29.00;37.80;;;;;;5012172;28;20476;-82
2022/07/15 12:24:15;;;;;;;5.70;3.43;;;28.70;38.00;;;;;;5026025;28;20427;-80
2022/07/15 12:26:54;;;;;;;3.50;3.00;;;28.20;38.20;;;;;;5008102;28;20588;-83
2022/07/15 12:29:28;;;;;;;3.60;3.30;;;28.40;39.20;;;;;;5011231;28;20443;-82
2022/07/15 12:32:09;;;;;;;3.60;3.07;;;28.20;38.80;;;;;;5007185;28;20446;-82
2022/07/15 12:34:46;;;;;;;7.50;3.43;;;28.40;38.70;;;;;;5003831;28;20823;-82
2022/07/15 12:37:26;;;;;;;3.87;3.30;;;28.10;38.40;;;;;;4998951;28;20609;-80
2022/07/15 12:40:01;;;;;;;5.73;3.43;;;28.70;38.80;;;;;;5007595;28;20449;-81
2022/07/15 12:42:31;;;;;;;5.97;3.47;;;28.50;38.40;;;;;;4997809;28;20434;-81
2022/07/15 12:45:14;;;;;;;3.53;2.97;;;28.60;38.50;;;;;;5009863;28;20437;-81
2022/07/15 12:47:58;;;;;;;3.47;3.00;;;28.60;38.30;;;;;;5007768;28;20475;-81
2022/07/15 12:50:24;;;;;;;3.40;3.10;;;28.60;38.60;;;;;;5008894;28;20524;-80
2022/07/15 12:52:49;;;;;;;3.70;3.30;;;28.60;38.80;;;;;;5017362;28;20905;-81
2022/07/15 12:55:21;;;;;;;3.97;3.57;;;28.80;38.50;;;;;;5018259;28;20449;-80
2022/07/15 12:57:48;;;;;;;5.53;3.50;;;28.60;38.70;;;;;;5009672;28;20214;-80
2022/07/15 13:00:20;;;;;;;7.13;4.20;;;28.30;39.10;;;;;;5006832;28;20446;-89
2022/07/15 13:03:11;;;;;;;4.13;3.70;;;28.40;39.40;;;;;;5010000;28;21020;-88
2022/07/15 13:05:38;;;;;;;4.87;3.80;;;28.20;39.70;;;;;;5017203;28;20456;-89
2022/07/15 13:08:09;;;;;;;4.70;3.13;;;28.20;40.00;;;;;;5026281;28;20455;-89